sensor_id;sensor_type;location;lat;lon;timestamp;temperature;humidity
35381;DHT22;21486;51.916;8.378;2023-09-08T00:00:56;18.50;99.90
35381;DHT22;21486;51.916;8.378;2023-09-08T00:03:21;18.50;99.90
35381;DHT22;21486;51.916;8.378;2023-09-08T00:05:47;18.40;99.90
35381;DHT22;21486;51.916;8.378;2023-09-08T00:08:12;18.40;99.90
35381;DHT22;21486;51.916;8.378;2023-09-08T00:10:38;18.40;99.90
35381;DHT22;21486;51.916;8.378;2023-09-08T00:13:03;18.40;99.90
35381;DHT22;21486;51.916;8.378;2023-09-08T00:15:29;18.30;99.90
35381;DHT22;21486;51.916;8.378;2023-09-08T00:17:54;18.30;99.90
35381;DHT22;21486;51.916;8.378;2023-09-08T00:20:22;18.30;99.90
35381;DHT22;21486;51.916;8.378;2023-09-08T00:22:47;18.30;99.90
35381;DHT22;21486;51.916;8.378;2023-09-08T00:25:13;18.20;99.90
35381;DHT22;21486;51.916;8.378;2023-09-08T00:27:39;18.10;99.90
35381;DHT22;21486;51.916;8.378;2023-09-08T00:33:04;18.10;99.90
35381;DHT22;21486;51.916;8.378;2023-09-08T00:35:34;18.00;99.90
35381;DHT22;21486;51.916;8.378;2023-09-08T00:37:59;18.00;99.90
35381;DHT22;21486;51.916;8.378;2023-09-08T00:40:28;18.00;99.90
35381;DHT22;21486;51.916;8.378;2023-09-08T00:42:53;18.00;99.90
35381;DHT22;21486;51.916;8.378;2023-09-08T00:45:19;17.90;99.90
35381;DHT22;21486;51.916;8.378;2023-09-08T00:47:45;17.90;99.90
35381;DHT22;21486;51.916;8.378;2023-09-08T00:50:11;17.80;99.90
35381;DHT22;21486;51.916;8.378;2023-09-08T00:52:37;17.90;99.90
35381;DHT22;21486;51.916;8.378;2023-09-08T00:55:03;17.80;99.90
35381;DHT22;21486;51.916;8.378;2023-09-08T00:57:29;17.80;99.90
35381;DHT22;21486;51.916;8.378;2023-09-08T00:59:54;17.80;99.90
35381;DHT22;21486;51.916;8.378;2023-09-08T01:02:20;17.90;99.90
35381;DHT22;21486;51.916;8.378;2023-09-08T01:04:47;17.80;99.90
35381;DHT22;21486;51.916;8.378;2023-09-08T01:07:13;17.90;99.90
35381;DHT22;21486;51.916;8.378;2023-09-08T01:09:40;17.80;99.90
35381;DHT22;21486;51.916;8.378;2023-09-08T01:12:07;17.80;99.90
35381;DHT22;21486;51.916;8.378;2023-09-08T01:14:32;17.70;99.90
35381;DHT22;21486;51.916;8.378;2023-09-08T01:16:58;17.70;99.90
35381;DHT22;21486;51.916;8.378;2023-09-08T01:19:24;17.70;99.90
35381;DHT22;21486;51.916;8.378;2023-09-08T01:27:33;17.70;99.90
35381;DHT22;21486;51.916;8.378;2023-09-08T01:30:02;17.70;99.90
35381;DHT22;21486;51.916;8.378;2023-09-08T01:32:29;17.60;99.90
35381;DHT22;21486;51.916;8.378;2023-09-08T01:34:56;17.60;99.90
35381;DHT22;21486;51.916;8.378;2023-09-08T01:37:23;17.60;99.90
35381;DHT22;21486;51.916;8.378;2023-09-08T01:39:49;17.50;99.90
35381;DHT22;21486;51.916;8.378;2023-09-08T01:42:14;17.50;99.90
35381;DHT22;21486;51.916;8.378;2023-09-08T01:44:40;17.50;99.90
35381;DHT22;21486;51.916;8.378;2023-09-08T01:47:05;17.40;99.90
35381;DHT22;21486;51.916;8.378;2023-09-08T01:49:31;17.50;99.90
35381;DHT22;21486;51.916;8.378;2023-09-08T01:51:56;17.50;99.90
35381;DHT22;21486;51.916;8.378;2023-09-08T01:54:22;17.40;99.90
35381;DHT22;21486;51.916;8.378;2023-09-08T01:56:48;17.50;99.90
35381;DHT22;21486;51.916;8.378;2023-09-08T01:59:13;17.50;99.90
35381;DHT22;21486;51.916;8.378;2023-09-08T02:01:39;17.40;99.90
35381;DHT22;21486;51.916;8.378;2023-09-08T02:04:05;17.50;99.90
35381;DHT22;21486;51.916;8.378;2023-09-08T02:06:31;17.40;99.90
35381;DHT22;21486;51.916;8.378;2023-09-08T02:08:56;17.50;99.90
35381;DHT22;21486;51.916;8.378;2023-09-08T02:11:22;17.40;99.90
35381;DHT22;21486;51.916;8.378;2023-09-08T02:13:47;17.40;99.90
35381;DHT22;21486;51.916;8.378;2023-09-08T02:16:16;17.30;99.90
35381;DHT22;21486;51.916;8.378;2023-09-08T02:18:45;17.30;99.90
35381;DHT22;21486;51.916;8.378;2023-09-08T02:21:11;17.30;99.90
35381;DHT22;21486;51.916;8.378;2023-09-08T02:23:37;17.20;99.90
35381;DHT22;21486;51.916;8.378;2023-09-08T02:26:03;17.30;99.90
35381;DHT22;21486;51.916;8.378;2023-09-08T02:28:29;17.20;99.90
35381;DHT22;21486;51.916;8.378;2023-09-08T02:30:54;17.20;99.90
35381;DHT22;21486;51.916;8.378;2023-09-08T02:33:20;17.20;99.90
35381;DHT22;21486;51.916;8.378;2023-09-08T02:35:46;17.10;99.90
35381;DHT22;21486;51.916;8.378;2023-09-08T02:38:11;17.20;99.90
35381;DHT22;21486;51.916;8.378;2023-09-08T02:40:37;17.10;99.90
35381;DHT22;21486;51.916;8.378;2023-09-08T02:43:03;17.10;99.90
35381;DHT22;21486;51.916;8.378;2023-09-08T02:45:29;17.10;99.90
35381;DHT22;21486;51.916;8.378;2023-09-08T02:47:55;17.10;99.90
35381;DHT22;21486;51.916;8.378;2023-09-08T02:50:21;17.10;99.90
35381;DHT22;21486;51.916;8.378;2023-09-08T02:52:47;17.10;99.90
35381;DHT22;21486;51.916;8.378;2023-09-08T02:55:12;17.10;99.90
35381;DHT22;21486;51.916;8.378;2023-09-08T02:57:39;17.20;99.90
35381;DHT22;21486;51.916;8.378;2023-09-08T03:00:05;17.30;99.90
35381;DHT22;21486;51.916;8.378;2023-09-08T03:02:32;17.30;99.90
35381;DHT22;21486;51.916;8.378;2023-09-08T03:04:58;17.40;99.90
35381;DHT22;21486;51.916;8.378;2023-09-08T03:07:24;17.60;99.90
35381;DHT22;21486;51.916;8.378;2023-09-08T03:09:49;17.60;99.90
35381;DHT22;21486;51.916;8.378;2023-09-08T03:12:15;17.80;99.90
35381;DHT22;21486;51.916;8.378;2023-09-08T03:14:40;17.90;99.90
35381;DHT22;21486;51.916;8.378;2023-09-08T03:17:06;18.00;99.90
35381;DHT22;21486;51.916;8.378;2023-09-08T03:19:32;18.10;99.90
35381;DHT22;21486;51.916;8.378;2023-09-08T03:21:58;18.10;99.90
35381;DHT22;21486;51.916;8.378;2023-09-08T03:24:24;18.10;99.90
35381;DHT22;21486;51.916;8.378;2023-09-08T03:26:49;18.10;99.90
35381;DHT22;21486;51.916;8.378;2023-09-08T03:29:15;18.10;99.90
35381;DHT22;21486;51.916;8.378;2023-09-08T03:31:40;18.10;99.90
35381;DHT22;21486;51.916;8.378;2023-09-08T03:34:06;18.10;99.90
35381;DHT22;21486;51.916;8.378;2023-09-08T03:36:32;18.20;99.90
35381;DHT22;21486;51.916;8.378;2023-09-08T03:39:01;18.20;99.90
35381;DHT22;21486;51.916;8.378;2023-09-08T03:41:27;18.20;99.90
35381;DHT22;21486;51.916;8.378;2023-09-08T03:43:53;18.20;99.90
35381;DHT22;21486;51.916;8.378;2023-09-08T03:46:18;18.10;99.90
35381;DHT22;21486;51.916;8.378;2023-09-08T03:48:44;18.20;99.90
35381;DHT22;21486;51.916;8.378;2023-09-08T03:51:09;18.20;99.90
35381;DHT22;21486;51.916;8.378;2023-09-08T03:53:35;18.20;99.90
35381;DHT22;21486;51.916;8.378;2023-09-08T03:56:01;18.20;99.90
35381;DHT22;21486;51.916;8.378;2023-09-08T03:58:26;18.20;99.90
35381;DHT22;21486;51.916;8.378;2023-09-08T04:00:52;18.20;99.90
35381;DHT22;21486;51.916;8.378;2023-09-08T04:03:17;18.20;99.90
35381;DHT22;21486;51.916;8.378;2023-09-08T04:05:43;18.10;99.90
35381;DHT22;21486;51.916;8.378;2023-09-08T04:08:08;18.00;99.90
35381;DHT22;21486;51.916;8.378;2023-09-08T04:10:34;18.00;99.90
35381;DHT22;21486;51.916;8.378;2023-09-08T04:12:59;18.00;99.90
35381;DHT22;21486;51.916;8.378;2023-09-08T04:15:25;17.90;99.90
35381;DHT22;21486;51.916;8.378;2023-09-08T04:17:50;17.90;99.90
35381;DHT22;21486;51.916;8.378;2023-09-08T04:20:16;17.90;99.90
35381;DHT22;21486;51.916;8.378;2023-09-08T04:22:42;17.80;99.90
35381;DHT22;21486;51.916;8.378;2023-09-08T04:25:08;17.90;99.90
35381;DHT22;21486;51.916;8.378;2023-09-08T04:27:35;17.80;99.90
35381;DHT22;21486;51.916;8.378;2023-09-08T04:30:02;17.80;99.90
35381;DHT22;21486;51.916;8.378;2023-09-08T04:32:28;17.80;99.90
35381;DHT22;21486;51.916;8.378;2023-09-08T04:34:54;17.80;99.90
35381;DHT22;21486;51.916;8.378;2023-09-08T04:37:19;17.80;99.90
35381;DHT22;21486;51.916;8.378;2023-09-08T04:39:45;17.80;99.90
35381;DHT22;21486;51.916;8.378;2023-09-08T04:42:10;17.80;99.90
35381;DHT22;21486;51.916;8.378;2023-09-08T04:44:36;17.80;99.90
35381;DHT22;21486;51.916;8.378;2023-09-08T04:47:02;17.70;99.90
35381;DHT22;21486;51.916;8.378;2023-09-08T04:49:27;17.70;99.90
35381;DHT22;21486;51.916;8.378;2023-09-08T04:51:54;17.70;99.90
35381;DHT22;21486;51.916;8.378;2023-09-08T04:54:19;17.70;99.90
35381;DHT22;21486;51.916;8.378;2023-09-08T04:56:45;17.80;99.90
35381;DHT22;21486;51.916;8.378;2023-09-08T04:59:11;17.80;99.90
35381;DHT22;21486;51.916;8.378;2023-09-08T05:01:36;17.70;99.90
35381;DHT22;21486;51.916;8.378;2023-09-08T05:04:03;17.80;99.90
35381;DHT22;21486;51.916;8.378;2023-09-08T05:06:29;17.70;99.90
35381;DHT22;21486;51.916;8.378;2023-09-08T05:08:55;17.70;99.90
35381;DHT22;21486;51.916;8.378;2023-09-08T05:11:20;17.70;99.90
35381;DHT22;21486;51.916;8.378;2023-09-08T05:13:46;17.70;99.90
35381;DHT22;21486;51.916;8.378;2023-09-08T05:16:12;17.70;99.90
35381;DHT22;21486;51.916;8.378;2023-09-08T05:18:38;17.70;99.90
35381;DHT22;21486;51.916;8.378;2023-09-08T05:21:04;17.70;99.90
35381;DHT22;21486;51.916;8.378;2023-09-08T05:23:30;17.70;99.90
35381;DHT22;21486;51.916;8.378;2023-09-08T05:25:56;17.70;99.90
35381;DHT22;21486;51.916;8.378;2023-09-08T05:28:21;17.70;99.90
35381;DHT22;21486;51.916;8.378;2023-09-08T05:30:47;17.70;99.90
35381;DHT22;21486;51.916;8.378;2023-09-08T05:33:12;17.80;99.90
35381;DHT22;21486;51.916;8.378;2023-09-08T05:35:38;17.80;99.90
35381;DHT22;21486;51.916;8.378;2023-09-08T05:38:04;17.90;99.90
35381;DHT22;21486;51.916;8.378;2023-09-08T05:40:30;18.00;99.90
35381;DHT22;21486;51.916;8.378;2023-09-08T05:42:56;18.10;99.90
35381;DHT22;21486;51.916;8.378;2023-09-08T05:45:21;18.00;99.90
35381;DHT22;21486;51.916;8.378;2023-09-08T05:47:47;18.10;99.90
35381;DHT22;21486;51.916;8.378;2023-09-08T05:50:14;18.20;99.90
35381;DHT22;21486;51.916;8.378;2023-09-08T05:52:40;18.20;99.90
35381;DHT22;21486;51.916;8.378;2023-09-08T05:55:06;18.20;99.90
35381;DHT22;21486;51.916;8.378;2023-09-08T05:57:31;18.30;99.90
35381;DHT22;21486;51.916;8.378;2023-09-08T05:59:57;18.40;99.90
35381;DHT22;21486;51.916;8.378;2023-09-08T06:02:23;18.50;99.90
35381;DHT22;21486;51.916;8.378;2023-09-08T06:04:48;18.50;99.90
35381;DHT22;21486;51.916;8.378;2023-09-08T06:07:14;18.60;99.90
35381;DHT22;21486;51.916;8.378;2023-09-08T06:09:39;18.60;99.90
35381;DHT22;21486;51.916;8.378;2023-09-08T06:12:05;18.70;99.90
35381;DHT22;21486;51.916;8.378;2023-09-08T06:14:31;18.80;99.90
35381;DHT22;21486;51.916;8.378;2023-09-08T06:16:56;18.80;99.90
35381;DHT22;21486;51.916;8.378;2023-09-08T06:19:22;18.80;99.90
35381;DHT22;21486;51.916;8.378;2023-09-08T06:21:47;18.90;99.90
35381;DHT22;21486;51.916;8.378;2023-09-08T06:24:13;19.10;99.90
35381;DHT22;21486;51.916;8.378;2023-09-08T06:26:38;19.10;99.90
35381;DHT22;21486;51.916;8.378;2023-09-08T06:29:04;19.20;99.90
35381;DHT22;21486;51.916;8.378;2023-09-08T06:31:29;19.20;99.90
35381;DHT22;21486;51.916;8.378;2023-09-08T06:33:55;19.30;99.90
35381;DHT22;21486;51.916;8.378;2023-09-08T06:36:21;19.40;99.90
35381;DHT22;21486;51.916;8.378;2023-09-08T06:38:47;19.40;99.90
35381;DHT22;21486;51.916;8.378;2023-09-08T06:41:12;19.40;99.90
35381;DHT22;21486;51.916;8.378;2023-09-08T06:43:38;19.50;99.90
35381;DHT22;21486;51.916;8.378;2023-09-08T06:46:04;19.70;99.90
35381;DHT22;21486;51.916;8.378;2023-09-08T06:48:30;19.70;99.90
35381;DHT22;21486;51.916;8.378;2023-09-08T06:50:55;19.80;99.90
35381;DHT22;21486;51.916;8.378;2023-09-08T06:53:25;19.90;99.90
35381;DHT22;21486;51.916;8.378;2023-09-08T06:55:50;19.90;99.90
35381;DHT22;21486;51.916;8.378;2023-09-08T06:58:16;20.10;99.90
35381;DHT22;21486;51.916;8.378;2023-09-08T07:00:42;20.10;99.90
35381;DHT22;21486;51.916;8.378;2023-09-08T07:03:08;20.30;99.90
35381;DHT22;21486;51.916;8.378;2023-09-08T07:05:34;20.30;99.90
35381;DHT22;21486;51.916;8.378;2023-09-08T07:08:00;20.40;99.90
35381;DHT22;21486;51.916;8.378;2023-09-08T07:10:25;20.60;99.90
35381;DHT22;21486;51.916;8.378;2023-09-08T07:12:51;20.60;99.90
35381;DHT22;21486;51.916;8.378;2023-09-08T07:15:16;20.80;99.90
35381;DHT22;21486;51.916;8.378;2023-09-08T07:17:42;20.80;99.90
35381;DHT22;21486;51.916;8.378;2023-09-08T07:20:08;20.90;99.90
35381;DHT22;21486;51.916;8.378;2023-09-08T07:22:34;21.00;99.90
35381;DHT22;21486;51.916;8.378;2023-09-08T07:24:59;21.20;99.90
35381;DHT22;21486;51.916;8.378;2023-09-08T07:27:25;21.30;99.90
35381;DHT22;21486;51.916;8.378;2023-09-08T07:29:50;21.40;99.90
35381;DHT22;21486;51.916;8.378;2023-09-08T07:32:16;21.50;99.90
35381;DHT22;21486;51.916;8.378;2023-09-08T07:34:42;21.50;99.90
35381;DHT22;21486;51.916;8.378;2023-09-08T07:37:08;21.60;99.90
35381;DHT22;21486;51.916;8.378;2023-09-08T07:39:33;21.70;99.90
35381;DHT22;21486;51.916;8.378;2023-09-08T07:42:00;21.80;99.90
35381;DHT22;21486;51.916;8.378;2023-09-08T07:44:26;21.90;99.90
35381;DHT22;21486;51.916;8.378;2023-09-08T07:46:52;21.90;99.90
35381;DHT22;21486;51.916;8.378;2023-09-08T07:49:18;22.00;99.90
35381;DHT22;21486;51.916;8.378;2023-09-08T07:51:45;22.10;99.90
35381;DHT22;21486;51.916;8.378;2023-09-08T07:54:10;22.30;99.90
35381;DHT22;21486;51.916;8.378;2023-09-08T07:56:36;22.30;99.90
35381;DHT22;21486;51.916;8.378;2023-09-08T07:59:02;22.40;99.90
35381;DHT22;21486;51.916;8.378;2023-09-08T08:01:27;22.50;99.90
35381;DHT22;21486;51.916;8.378;2023-09-08T08:03:53;22.60;99.90
35381;DHT22;21486;51.916;8.378;2023-09-08T08:06:19;22.70;99.90
35381;DHT22;21486;51.916;8.378;2023-09-08T08:08:44;22.80;99.90
35381;DHT22;21486;51.916;8.378;2023-09-08T08:11:14;22.90;99.90
35381;DHT22;21486;51.916;8.378;2023-09-08T08:13:40;23.10;99.90
35381;DHT22;21486;51.916;8.378;2023-09-08T08:16:06;23.30;99.90
35381;DHT22;21486;51.916;8.378;2023-09-08T08:18:32;23.50;99.90
35381;DHT22;21486;51.916;8.378;2023-09-08T08:20:57;23.70;99.90
35381;DHT22;21486;51.916;8.378;2023-09-08T08:23:23;24.10;99.90
35381;DHT22;21486;51.916;8.378;2023-09-08T08:25:49;24.40;99.90
35381;DHT22;21486;51.916;8.378;2023-09-08T08:28:14;24.90;99.90
35381;DHT22;21486;51.916;8.378;2023-09-08T08:30:40;25.50;98.90
35381;DHT22;21486;51.916;8.378;2023-09-08T08:33:06;26.00;98.00
35381;DHT22;21486;51.916;8.378;2023-09-08T08:35:31;26.70;96.60
35381;DHT22;21486;51.916;8.378;2023-09-08T08:38:00;27.40;94.30
35381;DHT22;21486;51.916;8.378;2023-09-08T08:40:26;27.80;92.50
35381;DHT22;21486;51.916;8.378;2023-09-08T08:42:58;27.70;91.20
35381;DHT22;21486;51.916;8.378;2023-09-08T08:45:24;28.40;90.50
35381;DHT22;21486;51.916;8.378;2023-09-08T08:47:51;28.50;89.40
35381;DHT22;21486;51.916;8.378;2023-09-08T08:50:17;28.90;87.20
35381;DHT22;21486;51.916;8.378;2023-09-08T08:52:44;29.70;85.40
35381;DHT22;21486;51.916;8.378;2023-09-08T08:55:10;30.10;81.50
35381;DHT22;21486;51.916;8.378;2023-09-08T08:57:39;30.50;76.50
35381;DHT22;21486;51.916;8.378;2023-09-08T09:00:10;30.80;75.70
35381;DHT22;21486;51.916;8.378;2023-09-08T09:02:39;30.70;73.60
35381;DHT22;21486;51.916;8.378;2023-09-08T09:05:08;30.80;74.40
35381;DHT22;21486;51.916;8.378;2023-09-08T09:07:34;31.20;72.20
35381;DHT22;21486;51.916;8.378;2023-09-08T09:10:00;31.50;69.90
35381;DHT22;21486;51.916;8.378;2023-09-08T09:12:26;31.70;70.30
35381;DHT22;21486;51.916;8.378;2023-09-08T09:14:54;31.90;67.40
35381;DHT22;21486;51.916;8.378;2023-09-08T09:17:20;31.70;69.00
35381;DHT22;21486;51.916;8.378;2023-09-08T09:19:46;31.90;67.30
35381;DHT22;21486;51.916;8.378;2023-09-08T09:22:11;32.50;65.20
35381;DHT22;21486;51.916;8.378;2023-09-08T09:24:39;33.00;65.60
35381;DHT22;21486;51.916;8.378;2023-09-08T09:27:07;33.60;62.50
35381;DHT22;21486;51.916;8.378;2023-09-08T09:29:34;34.00;61.00
35381;DHT22;21486;51.916;8.378;2023-09-08T09:32:04;34.10;59.60
35381;DHT22;21486;51.916;8.378;2023-09-08T09:34:31;33.80;59.80
35381;DHT22;21486;51.916;8.378;2023-09-08T09:36:57;34.20;59.10
35381;DHT22;21486;51.916;8.378;2023-09-08T09:39:24;34.60;58.60
35381;DHT22;21486;51.916;8.378;2023-09-08T09:41:54;34.90;57.90
35381;DHT22;21486;51.916;8.378;2023-09-08T09:44:21;33.50;58.50
35381;DHT22;21486;51.916;8.378;2023-09-08T09:46:47;34.00;58.90
35381;DHT22;21486;51.916;8.378;2023-09-08T09:49:13;34.30;58.80
35381;DHT22;21486;51.916;8.378;2023-09-08T09:51:43;34.10;59.80
35381;DHT22;21486;51.916;8.378;2023-09-08T09:54:09;34.70;56.80
35381;DHT22;21486;51.916;8.378;2023-09-08T09:56:37;34.80;57.80
35381;DHT22;21486;51.916;8.378;2023-09-08T09:59:03;35.00;56.60
35381;DHT22;21486;51.916;8.378;2023-09-08T10:01:29;35.00;55.10
35381;DHT22;21486;51.916;8.378;2023-09-08T10:03:55;34.80;57.90
35381;DHT22;21486;51.916;8.378;2023-09-08T10:06:21;34.90;55.30
35381;DHT22;21486;51.916;8.378;2023-09-08T10:08:47;34.10;58.00
35381;DHT22;21486;51.916;8.378;2023-09-08T10:11:16;34.50;56.70
35381;DHT22;21486;51.916;8.378;2023-09-08T10:13:46;34.80;55.40
35381;DHT22;21486;51.916;8.378;2023-09-08T10:16:16;34.70;54.20
35381;DHT22;21486;51.916;8.378;2023-09-08T10:18:45;34.90;55.90
35381;DHT22;21486;51.916;8.378;2023-09-08T10:21:12;35.30;53.90
35381;DHT22;21486;51.916;8.378;2023-09-08T10:23:40;35.00;53.80
35381;DHT22;21486;51.916;8.378;2023-09-08T10:26:10;35.30;53.50
35381;DHT22;21486;51.916;8.378;2023-09-08T10:28:36;34.90;53.90
35381;DHT22;21486;51.916;8.378;2023-09-08T10:31:03;34.60;54.70
35381;DHT22;21486;51.916;8.378;2023-09-08T10:33:31;34.40;54.40
35381;DHT22;21486;51.916;8.378;2023-09-08T10:35:57;34.60;53.20
35381;DHT22;21486;51.916;8.378;2023-09-08T10:38:24;34.70;54.40
35381;DHT22;21486;51.916;8.378;2023-09-08T10:40:51;34.70;53.90
35381;DHT22;21486;51.916;8.378;2023-09-08T10:43:18;35.30;52.30
35381;DHT22;21486;51.916;8.378;2023-09-08T10:45:47;35.70;52.20
35381;DHT22;21486;51.916;8.378;2023-09-08T10:48:13;35.80;51.40
35381;DHT22;21486;51.916;8.378;2023-09-08T10:50:41;36.00;51.00
35381;DHT22;21486;51.916;8.378;2023-09-08T10:53:13;35.70;50.50
35381;DHT22;21486;51.916;8.378;2023-09-08T10:55:50;35.70;50.60
35381;DHT22;21486;51.916;8.378;2023-09-08T10:58:20;35.60;51.40
35381;DHT22;21486;51.916;8.378;2023-09-08T11:00:48;35.80;49.80
35381;DHT22;21486;51.916;8.378;2023-09-08T11:03:26;35.50;49.70
35381;DHT22;21486;51.916;8.378;2023-09-08T11:05:53;33.80;50.50
35381;DHT22;21486;51.916;8.378;2023-09-08T11:08:18;33.60;51.50
35381;DHT22;21486;51.916;8.378;2023-09-08T11:10:45;33.20;51.90
35381;DHT22;21486;51.916;8.378;2023-09-08T11:13:10;33.90;52.70
35381;DHT22;21486;51.916;8.378;2023-09-08T11:15:37;34.50;51.90
35381;DHT22;21486;51.916;8.378;2023-09-08T11:18:06;34.80;51.90
35381;DHT22;21486;51.916;8.378;2023-09-08T11:20:33;35.20;50.90
35381;DHT22;21486;51.916;8.378;2023-09-08T11:22:59;35.20;50.70
35381;DHT22;21486;51.916;8.378;2023-09-08T11:25:25;35.60;49.20
35381;DHT22;21486;51.916;8.378;2023-09-08T11:27:50;35.40;49.70
35381;DHT22;21486;51.916;8.378;2023-09-08T11:30:16;36.00;48.00
35381;DHT22;21486;51.916;8.378;2023-09-08T11:32:41;36.50;47.40
35381;DHT22;21486;51.916;8.378;2023-09-08T11:35:09;36.50;47.80
35381;DHT22;21486;51.916;8.378;2023-09-08T11:37:37;36.80;47.20
35381;DHT22;21486;51.916;8.378;2023-09-08T11:40:04;35.30;47.30
35381;DHT22;21486;51.916;8.378;2023-09-08T11:42:34;34.90;48.30
35381;DHT22;21486;51.916;8.378;2023-09-08T11:45:00;35.00;50.10
35381;DHT22;21486;51.916;8.378;2023-09-08T11:47:26;34.90;48.60
35381;DHT22;21486;51.916;8.378;2023-09-08T11:49:52;34.10;48.10
35381;DHT22;21486;51.916;8.378;2023-09-08T11:52:18;34.20;50.10
35381;DHT22;21486;51.916;8.378;2023-09-08T11:54:44;34.70;48.50
35381;DHT22;21486;51.916;8.378;2023-09-08T11:57:10;34.10;48.50
35381;DHT22;21486;51.916;8.378;2023-09-08T11:59:37;34.70;47.20
35381;DHT22;21486;51.916;8.378;2023-09-08T12:02:03;34.90;47.80
35381;DHT22;21486;51.916;8.378;2023-09-08T12:04:29;35.30;47.20
35381;DHT22;21486;51.916;8.378;2023-09-08T12:06:55;35.00;46.20
35381;DHT22;21486;51.916;8.378;2023-09-08T12:09:23;35.00;46.60
35381;DHT22;21486;51.916;8.378;2023-09-08T12:11:49;34.80;47.20
35381;DHT22;21486;51.916;8.378;2023-09-08T12:14:15;34.60;48.40
35381;DHT22;21486;51.916;8.378;2023-09-08T12:16:42;34.50;48.50
35381;DHT22;21486;51.916;8.378;2023-09-08T12:19:10;34.50;48.70
35381;DHT22;21486;51.916;8.378;2023-09-08T12:21:58;34.60;49.60
35381;DHT22;21486;51.916;8.378;2023-09-08T12:24:47;35.20;48.70
35381;DHT22;21486;51.916;8.378;2023-09-08T12:27:16;34.80;46.50
35381;DHT22;21486;51.916;8.378;2023-09-08T12:29:56;34.40;48.50
35381;DHT22;21486;51.916;8.378;2023-09-08T12:32:25;34.80;49.30
35381;DHT22;21486;51.916;8.378;2023-09-08T12:34:51;34.30;48.80
35381;DHT22;21486;51.916;8.378;2023-09-08T12:37:24;34.00;48.50
35381;DHT22;21486;51.916;8.378;2023-09-08T12:39:50;33.50;50.00
35381;DHT22;21486;51.916;8.378;2023-09-08T12:42:18;33.80;51.50
35381;DHT22;21486;51.916;8.378;2023-09-08T12:44:43;34.20;50.40
35381;DHT22;21486;51.916;8.378;2023-09-08T12:47:10;34.70;49.30
35381;DHT22;21486;51.916;8.378;2023-09-08T12:49:37;35.30;49.00
35381;DHT22;21486;51.916;8.378;2023-09-08T12:52:03;35.10;49.50
35381;DHT22;21486;51.916;8.378;2023-09-08T12:54:28;34.70;48.90
35381;DHT22;21486;51.916;8.378;2023-09-08T12:56:54;33.80;49.10
35381;DHT22;21486;51.916;8.378;2023-09-08T12:59:20;33.40;50.60
35381;DHT22;21486;51.916;8.378;2023-09-08T13:01:45;33.80;50.30
35381;DHT22;21486;51.916;8.378;2023-09-08T13:04:11;33.50;50.20
35381;DHT22;21486;51.916;8.378;2023-09-08T13:06:36;33.30;50.20
35381;DHT22;21486;51.916;8.378;2023-09-08T13:09:02;32.80;51.50
35381;DHT22;21486;51.916;8.378;2023-09-08T13:11:27;32.20;51.80
35381;DHT22;21486;51.916;8.378;2023-09-08T13:13:53;31.80;53.90
35381;DHT22;21486;51.916;8.378;2023-09-08T13:16:19;32.20;53.30
35381;DHT22;21486;51.916;8.378;2023-09-08T13:18:44;32.00;53.00
35381;DHT22;21486;51.916;8.378;2023-09-08T13:21:11;31.80;53.90
35381;DHT22;21486;51.916;8.378;2023-09-08T13:23:36;31.70;53.50
35381;DHT22;21486;51.916;8.378;2023-09-08T13:26:02;31.80;55.70
35381;DHT22;21486;51.916;8.378;2023-09-08T13:28:28;31.70;56.00
35381;DHT22;21486;51.916;8.378;2023-09-08T13:30:53;31.70;55.00
35381;DHT22;21486;51.916;8.378;2023-09-08T13:33:19;31.50;54.60
35381;DHT22;21486;51.916;8.378;2023-09-08T13:35:45;31.40;56.00
35381;DHT22;21486;51.916;8.378;2023-09-08T13:38:10;31.40;55.10
35381;DHT22;21486;51.916;8.378;2023-09-08T13:40:36;31.30;56.00
35381;DHT22;21486;51.916;8.378;2023-09-08T13:43:01;31.40;56.20
35381;DHT22;21486;51.916;8.378;2023-09-08T13:45:28;31.10;54.30
35381;DHT22;21486;51.916;8.378;2023-09-08T13:47:54;31.10;55.50
35381;DHT22;21486;51.916;8.378;2023-09-08T13:50:19;30.90;56.40
35381;DHT22;21486;51.916;8.378;2023-09-08T13:52:45;30.80;56.20
35381;DHT22;21486;51.916;8.378;2023-09-08T13:55:10;30.80;57.00
35381;DHT22;21486;51.916;8.378;2023-09-08T13:57:36;30.60;57.00
35381;DHT22;21486;51.916;8.378;2023-09-08T14:00:03;30.70;58.10
35381;DHT22;21486;51.916;8.378;2023-09-08T14:02:29;30.60;58.90
35381;DHT22;21486;51.916;8.378;2023-09-08T14:04:54;30.50;57.90
35381;DHT22;21486;51.916;8.378;2023-09-08T14:07:20;30.50;58.00
35381;DHT22;21486;51.916;8.378;2023-09-08T14:09:45;30.60;58.30
35381;DHT22;21486;51.916;8.378;2023-09-08T14:12:11;30.60;58.10
35381;DHT22;21486;51.916;8.378;2023-09-08T14:14:36;30.70;58.80
35381;DHT22;21486;51.916;8.378;2023-09-08T14:17:02;30.50;58.70
35381;DHT22;21486;51.916;8.378;2023-09-08T14:19:28;30.70;57.60
35381;DHT22;21486;51.916;8.378;2023-09-08T14:21:53;30.60;59.40
35381;DHT22;21486;51.916;8.378;2023-09-08T14:24:19;30.60;58.20
35381;DHT22;21486;51.916;8.378;2023-09-08T14:26:45;30.40;59.40
35381;DHT22;21486;51.916;8.378;2023-09-08T14:29:10;30.40;60.00
35381;DHT22;21486;51.916;8.378;2023-09-08T14:31:36;30.40;63.30
35381;DHT22;21486;51.916;8.378;2023-09-08T14:34:01;30.40;63.20
35381;DHT22;21486;51.916;8.378;2023-09-08T14:36:27;30.50;61.80
35381;DHT22;21486;51.916;8.378;2023-09-08T14:38:52;30.40;59.50
35381;DHT22;21486;51.916;8.378;2023-09-08T14:41:18;30.40;59.10
35381;DHT22;21486;51.916;8.378;2023-09-08T14:43:44;30.40;58.70
35381;DHT22;21486;51.916;8.378;2023-09-08T14:46:09;30.40;60.90
35381;DHT22;21486;51.916;8.378;2023-09-08T14:48:35;30.40;59.00
35381;DHT22;21486;51.916;8.378;2023-09-08T14:51:01;30.30;59.10
35381;DHT22;21486;51.916;8.378;2023-09-08T14:53:27;30.20;61.00
35381;DHT22;21486;51.916;8.378;2023-09-08T14:55:54;30.10;62.90
35381;DHT22;21486;51.916;8.378;2023-09-08T14:58:23;30.30;63.60
35381;DHT22;21486;51.916;8.378;2023-09-08T15:00:48;30.30;63.00
35381;DHT22;21486;51.916;8.378;2023-09-08T15:03:14;30.40;62.40
35381;DHT22;21486;51.916;8.378;2023-09-08T15:05:40;30.40;60.40
35381;DHT22;21486;51.916;8.378;2023-09-08T15:08:06;30.30;60.40
35381;DHT22;21486;51.916;8.378;2023-09-08T15:10:32;30.40;60.50
35381;DHT22;21486;51.916;8.378;2023-09-08T15:12:57;30.40;60.60
35381;DHT22;21486;51.916;8.378;2023-09-08T15:15:23;30.30;61.70
35381;DHT22;21486;51.916;8.378;2023-09-08T15:17:51;30.30;61.00
35381;DHT22;21486;51.916;8.378;2023-09-08T15:20:16;30.20;59.90
35381;DHT22;21486;51.916;8.378;2023-09-08T15:22:42;30.20;60.20
35381;DHT22;21486;51.916;8.378;2023-09-08T15:25:08;30.20;61.00
35381;DHT22;21486;51.916;8.378;2023-09-08T15:27:33;30.20;60.20
35381;DHT22;21486;51.916;8.378;2023-09-08T15:29:59;30.30;61.10
35381;DHT22;21486;51.916;8.378;2023-09-08T15:32:25;30.30;61.30